sensor_id;sensor_type;location;lat;lon;timestamp;P1;durP1;ratioP1;P2;durP2;ratioP2
17059;SDS011;8646;49.716;9.266;2023-04-23T00:01:59;4.70;;;1.70;;
17059;SDS011;8646;49.716;9.266;2023-04-23T00:05:04;2.77;;;1.80;;
17059;SDS011;8646;49.716;9.266;2023-04-23T00:08:09;6.83;;;2.30;;
17059;SDS011;8646;49.716;9.266;2023-04-23T00:11:14;2.93;;;1.83;;
17059;SDS011;8646;49.716;9.266;2023-04-23T00:14:20;5.23;;;2.07;;
17059;SDS011;8646;49.716;9.266;2023-04-23T00:17:23;6.90;;;2.20;;
17059;SDS011;8646;49.716;9.266;2023-04-23T00:20:26;4.93;;;2.10;;
17059;SDS011;8646;49.716;9.266;2023-04-23T00:23:29;5.83;;;2.50;;
17059;SDS011;8646;49.716;9.266;2023-04-23T00:26:33;4.43;;;2.10;;
17059;SDS011;8646;49.716;9.266;2023-04-23T00:29:35;3.87;;;2.00;;
17059;SDS011;8646;49.716;9.266;2023-04-23T00:32:46;2.90;;;2.00;;
17059;SDS011;8646;49.716;9.266;2023-04-23T00:35:49;4.17;;;1.70;;
17059;SDS011;8646;49.716;9.266;2023-04-23T00:38:52;4.80;;;1.87;;
17059;SDS011;8646;49.716;9.266;2023-04-23T00:41:56;3.97;;;2.00;;
17059;SDS011;8646;49.716;9.266;2023-04-23T00:45:01;3.27;;;1.90;;
17059;SDS011;8646;49.716;9.266;2023-04-23T00:48:04;4.60;;;1.90;;
17059;SDS011;8646;49.716;9.266;2023-04-23T00:51:09;3.57;;;2.10;;
17059;SDS011;8646;49.716;9.266;2023-04-23T00:54:13;3.90;;;1.97;;
17059;SDS011;8646;49.716;9.266;2023-04-23T00:57:17;4.80;;;1.93;;
17059;SDS011;8646;49.716;9.266;2023-04-23T01:00:20;4.13;;;2.20;;
17059;SDS011;8646;49.716;9.266;2023-04-23T01:03:23;2.87;;;1.80;;
17059;SDS011;8646;49.716;9.266;2023-04-23T01:06:30;5.00;;;2.40;;
17059;SDS011;8646;49.716;9.266;2023-04-23T01:09:32;5.13;;;2.10;;
17059;SDS011;8646;49.716;9.266;2023-04-23T01:12:37;5.53;;;2.40;;
17059;SDS011;8646;49.716;9.266;2023-04-23T01:15:39;4.07;;;2.50;;
17059;SDS011;8646;49.716;9.266;2023-04-23T01:18:42;4.70;;;2.83;;
17059;SDS011;8646;49.716;9.266;2023-04-23T01:21:47;3.73;;;2.40;;
17059;SDS011;8646;49.716;9.266;2023-04-23T01:24:53;7.43;;;2.17;;
17059;SDS011;8646;49.716;9.266;2023-04-23T01:27:56;5.77;;;2.50;;
17059;SDS011;8646;49.716;9.266;2023-04-23T01:30:59;3.93;;;2.53;;
17059;SDS011;8646;49.716;9.266;2023-04-23T01:34:04;4.43;;;2.30;;
17059;SDS011;8646;49.716;9.266;2023-04-23T01:37:08;3.70;;;2.20;;
17059;SDS011;8646;49.716;9.266;2023-04-23T01:40:12;4.40;;;2.50;;
17059;SDS011;8646;49.716;9.266;2023-04-23T01:43:16;3.93;;;2.53;;
17059;SDS011;8646;49.716;9.266;2023-04-23T01:46:21;5.00;;;2.40;;
17059;SDS011;8646;49.716;9.266;2023-04-23T01:49:25;5.70;;;2.50;;
17059;SDS011;8646;49.716;9.266;2023-04-23T01:52:27;3.37;;;2.23;;
17059;SDS011;8646;49.716;9.266;2023-04-23T01:55:31;6.93;;;2.13;;
17059;SDS011;8646;49.716;9.266;2023-04-23T01:58:36;4.17;;;2.40;;
17059;SDS011;8646;49.716;9.266;2023-04-23T02:01:42;7.27;;;2.90;;
17059;SDS011;8646;49.716;9.266;2023-04-23T02:04:46;5.63;;;2.00;;
17059;SDS011;8646;49.716;9.266;2023-04-23T02:07:53;5.30;;;2.30;;
17059;SDS011;8646;49.716;9.266;2023-04-23T02:10:58;5.13;;;2.03;;
17059;SDS011;8646;49.716;9.266;2023-04-23T02:14:01;3.67;;;2.10;;
17059;SDS011;8646;49.716;9.266;2023-04-23T02:17:05;2.00;;;1.43;;
17059;SDS011;8646;49.716;9.266;2023-04-23T02:20:08;4.93;;;1.53;;
17059;SDS011;8646;49.716;9.266;2023-04-23T02:23:12;2.07;;;1.63;;
17059;SDS011;8646;49.716;9.266;2023-04-23T02:26:16;1.77;;;1.43;;
17059;SDS011;8646;49.716;9.266;2023-04-23T02:29:19;1.73;;;1.40;;
17059;SDS011;8646;49.716;9.266;2023-04-23T02:32:22;2.30;;;1.57;;
17059;SDS011;8646;49.716;9.266;2023-04-23T02:35:25;2.57;;;1.70;;
17059;SDS011;8646;49.716;9.266;2023-04-23T02:38:28;1.70;;;1.57;;
17059;SDS011;8646;49.716;9.266;2023-04-23T02:41:32;2.40;;;1.67;;
17059;SDS011;8646;49.716;9.266;2023-04-23T02:44:34;3.50;;;1.70;;
17059;SDS011;8646;49.716;9.266;2023-04-23T02:47:37;2.17;;;1.60;;
17059;SDS011;8646;49.716;9.266;2023-04-23T02:50:40;2.97;;;1.63;;
17059;SDS011;8646;49.716;9.266;2023-04-23T02:53:43;2.63;;;1.60;;
17059;SDS011;8646;49.716;9.266;2023-04-23T02:56:47;2.53;;;1.73;;
17059;SDS011;8646;49.716;9.266;2023-04-23T02:59:50;3.83;;;1.70;;
17059;SDS011;8646;49.716;9.266;2023-04-23T03:02:53;5.00;;;1.83;;
17059;SDS011;8646;49.716;9.266;2023-04-23T03:05:56;4.27;;;1.80;;
17059;SDS011;8646;49.716;9.266;2023-04-23T03:08:59;3.17;;;1.80;;
17059;SDS011;8646;49.716;9.266;2023-04-23T03:12:04;2.40;;;1.73;;
17059;SDS011;8646;49.716;9.266;2023-04-23T03:15:06;2.30;;;1.70;;
17059;SDS011;8646;49.716;9.266;2023-04-23T03:18:10;3.20;;;1.70;;
17059;SDS011;8646;49.716;9.266;2023-04-23T03:21:13;2.53;;;1.70;;
17059;SDS011;8646;49.716;9.266;2023-04-23T03:24:16;2.53;;;1.67;;
17059;SDS011;8646;49.716;9.266;2023-04-23T03:27:20;2.03;;;1.60;;
17059;SDS011;8646;49.716;9.266;2023-04-23T03:30:23;3.77;;;1.70;;
17059;SDS011;8646;49.716;9.266;2023-04-23T03:33:26;2.40;;;1.63;;
17059;SDS011;8646;49.716;9.266;2023-04-23T03:36:28;3.07;;;2.10;;
17059;SDS011;8646;49.716;9.266;2023-04-23T03:39:32;3.57;;;1.90;;
17059;SDS011;8646;49.716;9.266;2023-04-23T03:42:36;5.07;;;2.13;;
17059;SDS011;8646;49.716;9.266;2023-04-23T03:45:39;2.60;;;1.90;;
17059;SDS011;8646;49.716;9.266;2023-04-23T03:48:41;2.20;;;1.80;;
17059;SDS011;8646;49.716;9.266;2023-04-23T03:51:44;2.63;;;1.90;;
17059;SDS011;8646;49.716;9.266;2023-04-23T03:54:47;2.80;;;1.70;;
17059;SDS011;8646;49.716;9.266;2023-04-23T03:57:51;2.60;;;1.90;;
17059;SDS011;8646;49.716;9.266;2023-04-23T04:00:53;2.83;;;1.67;;
17059;SDS011;8646;49.716;9.266;2023-04-23T04:03:56;3.30;;;1.80;;
17059;SDS011;8646;49.716;9.266;2023-04-23T04:07:00;2.13;;;1.80;;
17059;SDS011;8646;49.716;9.266;2023-04-23T04:10:04;2.47;;;1.70;;
17059;SDS011;8646;49.716;9.266;2023-04-23T04:13:09;3.87;;;2.00;;
17059;SDS011;8646;49.716;9.266;2023-04-23T04:16:12;3.60;;;2.10;;
17059;SDS011;8646;49.716;9.266;2023-04-23T04:19:14;2.83;;;1.97;;
17059;SDS011;8646;49.716;9.266;2023-04-23T04:22:17;3.20;;;2.20;;
17059;SDS011;8646;49.716;9.266;2023-04-23T04:25:20;3.97;;;2.20;;
17059;SDS011;8646;49.716;9.266;2023-04-23T04:28:25;3.07;;;1.97;;
17059;SDS011;8646;49.716;9.266;2023-04-23T04:31:28;3.83;;;2.33;;
17059;SDS011;8646;49.716;9.266;2023-04-23T04:34:31;2.33;;;2.03;;
17059;SDS011;8646;49.716;9.266;2023-04-23T04:37:34;3.23;;;2.33;;
17059;SDS011;8646;49.716;9.266;2023-04-23T04:40:37;3.47;;;2.20;;
17059;SDS011;8646;49.716;9.266;2023-04-23T04:43:41;3.10;;;2.47;;
17059;SDS011;8646;49.716;9.266;2023-04-23T04:46:45;5.00;;;2.37;;
17059;SDS011;8646;49.716;9.266;2023-04-23T04:49:48;3.00;;;2.50;;
17059;SDS011;8646;49.716;9.266;2023-04-23T04:52:51;3.47;;;2.60;;
17059;SDS011;8646;49.716;9.266;2023-04-23T04:55:54;4.10;;;2.37;;
17059;SDS011;8646;49.716;9.266;2023-04-23T04:58:58;3.13;;;2.30;;
17059;SDS011;8646;49.716;9.266;2023-04-23T05:02:01;3.83;;;2.10;;
17059;SDS011;8646;49.716;9.266;2023-04-23T05:05:04;2.93;;;1.97;;
17059;SDS011;8646;49.716;9.266;2023-04-23T05:08:08;2.63;;;2.20;;
17059;SDS011;8646;49.716;9.266;2023-04-23T05:11:11;2.77;;;2.10;;
17059;SDS011;8646;49.716;9.266;2023-04-23T05:14:15;4.67;;;2.23;;
17059;SDS011;8646;49.716;9.266;2023-04-23T05:17:17;2.63;;;2.00;;
17059;SDS011;8646;49.716;9.266;2023-04-23T05:20:21;2.43;;;2.00;;
17059;SDS011;8646;49.716;9.266;2023-04-23T05:23:24;3.50;;;2.30;;
17059;SDS011;8646;49.716;9.266;2023-04-23T05:26:27;4.10;;;1.93;;
17059;SDS011;8646;49.716;9.266;2023-04-23T05:29:31;3.47;;;1.90;;
17059;SDS011;8646;49.716;9.266;2023-04-23T05:32:34;2.30;;;1.80;;
17059;SDS011;8646;49.716;9.266;2023-04-23T05:35:37;3.47;;;1.90;;
17059;SDS011;8646;49.716;9.266;2023-04-23T05:38:40;3.00;;;2.00;;
17059;SDS011;8646;49.716;9.266;2023-04-23T05:41:42;3.37;;;2.47;;
17059;SDS011;8646;49.716;9.266;2023-04-23T05:44:46;3.20;;;2.27;;
17059;SDS011;8646;49.716;9.266;2023-04-23T05:47:49;3.93;;;2.10;;
17059;SDS011;8646;49.716;9.266;2023-04-23T05:50:53;2.93;;;1.90;;
17059;SDS011;8646;49.716;9.266;2023-04-23T05:53:55;4.47;;;1.73;;
17059;SDS011;8646;49.716;9.266;2023-04-23T05:56:58;2.67;;;1.70;;
17059;SDS011;8646;49.716;9.266;2023-04-23T06:00:04;2.13;;;1.50;;
17059;SDS011;8646;49.716;9.266;2023-04-23T06:03:10;3.77;;;1.83;;
17059;SDS011;8646;49.716;9.266;2023-04-23T06:06:13;2.43;;;1.83;;
17059;SDS011;8646;49.716;9.266;2023-04-23T06:09:16;2.50;;;1.60;;
17059;SDS011;8646;49.716;9.266;2023-04-23T06:12:18;7.00;;;1.70;;
17059;SDS011;8646;49.716;9.266;2023-04-23T06:15:22;2.63;;;1.70;;
17059;SDS011;8646;49.716;9.266;2023-04-23T06:18:27;6.53;;;1.70;;
17059;SDS011;8646;49.716;9.266;2023-04-23T06:21:30;2.67;;;1.50;;
17059;SDS011;8646;49.716;9.266;2023-04-23T06:24:33;2.20;;;1.43;;
17059;SDS011;8646;49.716;9.266;2023-04-23T06:27:36;2.97;;;1.57;;
17059;SDS011;8646;49.716;9.266;2023-04-23T06:30:41;2.00;;;1.50;;
17059;SDS011;8646;49.716;9.266;2023-04-23T06:33:43;1.97;;;1.50;;
17059;SDS011;8646;49.716;9.266;2023-04-23T06:36:46;3.00;;;1.63;;
17059;SDS011;8646;49.716;9.266;2023-04-23T06:39:49;3.87;;;2.10;;
17059;SDS011;8646;49.716;9.266;2023-04-23T06:42:51;5.57;;;3.97;;
17059;SDS011;8646;49.716;9.266;2023-04-23T06:45:56;23.57;;;12.07;;
17059;SDS011;8646;49.716;9.266;2023-04-23T06:48:58;20.13;;;9.53;;
17059;SDS011;8646;49.716;9.266;2023-04-23T06:52:01;13.90;;;7.53;;
17059;SDS011;8646;49.716;9.266;2023-04-23T06:55:04;3.17;;;2.40;;
17059;SDS011;8646;49.716;9.266;2023-04-23T06:58:07;2.40;;;1.83;;
17059;SDS011;8646;49.716;9.266;2023-04-23T07:01:14;5.73;;;4.03;;
17059;SDS011;8646;49.716;9.266;2023-04-23T07:04:17;4.20;;;2.70;;
17059;SDS011;8646;49.716;9.266;2023-04-23T07:07:19;3.80;;;2.07;;
17059;SDS011;8646;49.716;9.266;2023-04-23T07:10:22;5.33;;;1.83;;
17059;SDS011;8646;49.716;9.266;2023-04-23T07:13:25;3.17;;;2.43;;
17059;SDS011;8646;49.716;9.266;2023-04-23T07:16:29;2.33;;;1.30;;
17059;SDS011;8646;49.716;9.266;2023-04-23T07:19:34;1.97;;;1.20;;
17059;SDS011;8646;49.716;9.266;2023-04-23T07:22:37;2.77;;;1.43;;
17059;SDS011;8646;49.716;9.266;2023-04-23T07:25:39;4.30;;;1.10;;
17059;SDS011;8646;49.716;9.266;2023-04-23T07:28:42;2.43;;;1.60;;
17059;SDS011;8646;49.716;9.266;2023-04-23T07:31:48;2.63;;;1.70;;
17059;SDS011;8646;49.716;9.266;2023-04-23T07:34:51;2.33;;;1.40;;
17059;SDS011;8646;49.716;9.266;2023-04-23T07:37:54;3.23;;;1.50;;
17059;SDS011;8646;49.716;9.266;2023-04-23T07:40:58;3.90;;;1.60;;
17059;SDS011;8646;49.716;9.266;2023-04-23T07:44:01;3.57;;;1.57;;
17059;SDS011;8646;49.716;9.266;2023-04-23T07:47:05;3.63;;;1.77;;
17059;SDS011;8646;49.716;9.266;2023-04-23T07:50:08;2.20;;;1.50;;
17059;SDS011;8646;49.716;9.266;2023-04-23T07:53:11;2.20;;;1.60;;
17059;SDS011;8646;49.716;9.266;2023-04-23T07:56:13;2.83;;;1.80;;
17059;SDS011;8646;49.716;9.266;2023-04-23T07:59:16;3.70;;;2.10;;
17059;SDS011;8646;49.716;9.266;2023-04-23T08:02:20;2.10;;;1.70;;
17059;SDS011;8646;49.716;9.266;2023-04-23T08:05:26;3.53;;;1.50;;
17059;SDS011;8646;49.716;9.266;2023-04-23T08:08:29;3.90;;;1.63;;
17059;SDS011;8646;49.716;9.266;2023-04-23T08:11:32;2.77;;;1.70;;
17059;SDS011;8646;49.716;9.266;2023-04-23T08:14:35;2.37;;;1.70;;
17059;SDS011;8646;49.716;9.266;2023-04-23T08:17:39;3.30;;;1.63;;
17059;SDS011;8646;49.716;9.266;2023-04-23T08:20:42;3.17;;;1.70;;
17059;SDS011;8646;49.716;9.266;2023-04-23T08:23:44;4.27;;;1.70;;
17059;SDS011;8646;49.716;9.266;2023-04-23T08:26:47;3.97;;;1.90;;
17059;SDS011;8646;49.716;9.266;2023-04-23T08:29:50;2.80;;;1.90;;
17059;SDS011;8646;49.716;9.266;2023-04-23T08:32:54;3.60;;;1.70;;
17059;SDS011;8646;49.716;9.266;2023-04-23T08:35:58;3.83;;;1.60;;
17059;SDS011;8646;49.716;9.266;2023-04-23T08:39:02;4.20;;;1.70;;
17059;SDS011;8646;49.716;9.266;2023-04-23T08:42:08;3.63;;;1.83;;
17059;SDS011;8646;49.716;9.266;2023-04-23T08:45:13;2.23;;;1.60;;
17059;SDS011;8646;49.716;9.266;2023-04-23T08:48:17;2.87;;;1.60;;
17059;SDS011;8646;49.716;9.266;2023-04-23T08:51:21;3.63;;;2.00;;
17059;SDS011;8646;49.716;9.266;2023-04-23T08:54:27;3.70;;;1.50;;
17059;SDS011;8646;49.716;9.266;2023-04-23T08:57:32;2.63;;;1.60;;
17059;SDS011;8646;49.716;9.266;2023-04-23T09:00:35;2.43;;;1.60;;
17059;SDS011;8646;49.716;9.266;2023-04-23T09:03:41;2.17;;;1.50;;
17059;SDS011;8646;49.716;9.266;2023-04-23T09:06:44;3.90;;;1.43;;
17059;SDS011;8646;49.716;9.266;2023-04-23T09:09:47;3.80;;;1.70;;
17059;SDS011;8646;49.716;9.266;2023-04-23T09:12:50;2.43;;;1.47;;
17059;SDS011;8646;49.716;9.266;2023-04-23T09:15:52;2.40;;;1.60;;
17059;SDS011;8646;49.716;9.266;2023-04-23T09:18:56;3.30;;;1.47;;
17059;SDS011;8646;49.716;9.266;2023-04-23T09:22:01;3.83;;;1.40;;
17059;SDS011;8646;49.716;9.266;2023-04-23T09:25:04;2.77;;;1.53;;
17059;SDS011;8646;49.716;9.266;2023-04-23T09:28:08;3.03;;;1.50;;
17059;SDS011;8646;49.716;9.266;2023-04-23T09:31:11;5.30;;;1.53;;
17059;SDS011;8646;49.716;9.266;2023-04-23T09:34:15;2.47;;;1.40;;
17059;SDS011;8646;49.716;9.266;2023-04-23T09:37:19;3.37;;;1.40;;
17059;SDS011;8646;49.716;9.266;2023-04-23T09:40:26;3.30;;;1.67;;
17059;SDS011;8646;49.716;9.266;2023-04-23T09:43:29;2.03;;;1.50;;
17059;SDS011;8646;49.716;9.266;2023-04-23T09:46:33;2.60;;;1.60;;
17059;SDS011;8646;49.716;9.266;2023-04-23T09:49:47;2.47;;;1.70;;
17059;SDS011;8646;49.716;9.266;2023-04-23T09:52:52;2.77;;;1.50;;
17059;SDS011;8646;49.716;9.266;2023-04-23T09:55:57;2.67;;;1.40;;
17059;SDS011;8646;49.716;9.266;2023-04-23T09:59:00;3.20;;;1.40;;
17059;SDS011;8646;49.716;9.266;2023-04-23T10:02:04;4.67;;;1.80;;
17059;SDS011;8646;49.716;9.266;2023-04-23T10:05:14;1.90;;;1.20;;
17059;SDS011;8646;49.716;9.266;2023-04-23T10:08:26;3.00;;;1.30;;
17059;SDS011;8646;49.716;9.266;2023-04-23T10:11:29;2.50;;;1.33;;
17059;SDS011;8646;49.716;9.266;2023-04-23T10:14:32;3.07;;;1.40;;
17059;SDS011;8646;49.716;9.266;2023-04-23T10:17:35;6.10;;;1.50;;
17059;SDS011;8646;49.716;9.266;2023-04-23T10:20:40;1.53;;;1.40;;
17059;SDS011;8646;49.716;9.266;2023-04-23T10:23:44;1.97;;;1.27;;
17059;SDS011;8646;49.716;9.266;2023-04-23T10:26:49;2.73;;;1.30;;
17059;SDS011;8646;49.716;9.266;2023-04-23T10:29:54;2.87;;;1.20;;
17059;SDS011;8646;49.716;9.266;2023-04-23T10:32:59;1.90;;;1.00;;
17059;SDS011;8646;49.716;9.266;2023-04-23T10:36:05;3.23;;;1.10;;
17059;SDS011;8646;49.716;9.266;2023-04-23T10:39:08;2.20;;;1.20;;
17059;SDS011;8646;49.716;9.266;2023-04-23T10:42:12;3.00;;;0.90;;
17059;SDS011;8646;49.716;9.266;2023-04-23T10:45:16;2.83;;;1.20;;
17059;SDS011;8646;49.716;9.266;2023-04-23T10:48:24;2.17;;;1.10;;
17059;SDS011;8646;49.716;9.266;2023-04-23T10:51:33;2.30;;;1.33;;
17059;SDS011;8646;49.716;9.266;2023-04-23T10:54:56;2.00;;;1.40;;
17059;SDS011;8646;49.716;9.266;2023-04-23T10:58:01;2.73;;;1.50;;
17059;SDS011;8646;49.716;9.266;2023-04-23T11:01:05;3.10;;;1.30;;
17059;SDS011;8646;49.716;9.266;2023-04-23T11:04:21;2.43;;;1.37;;
17059;SDS011;8646;49.716;9.266;2023-04-23T11:07:29;3.67;;;1.77;;
17059;SDS011;8646;49.716;9.266;2023-04-23T11:10:32;2.77;;;1.50;;
17059;SDS011;8646;49.716;9.266;2023-04-23T11:13:36;1.40;;;1.20;;
17059;SDS011;8646;49.716;9.266;2023-04-23T11:16:53;2.23;;;1.37;;
17059;SDS011;8646;49.716;9.266;2023-04-23T11:20:08;3.87;;;1.40;;
17059;SDS011;8646;49.716;9.266;2023-04-23T11:23:29;2.90;;;1.20;;
17059;SDS011;8646;49.716;9.266;2023-04-23T11:26:33;2.07;;;1.37;;
17059;SDS011;8646;49.716;9.266;2023-04-23T11:29:38;3.67;;;1.73;;
17059;SDS011;8646;49.716;9.266;2023-04-23T11:32:43;2.10;;;1.40;;
17059;SDS011;8646;49.716;9.266;2023-04-23T11:35:48;4.60;;;1.33;;
17059;SDS011;8646;49.716;9.266;2023-04-23T11:38:55;2.33;;;1.00;;
17059;SDS011;8646;49.716;9.266;2023-04-23T11:41:58;3.63;;;1.37;;
17059;SDS011;8646;49.716;9.266;2023-04-23T11:45:04;3.87;;;1.37;;
17059;SDS011;8646;49.716;9.266;2023-04-23T11:48:07;2.10;;;1.20;;
17059;SDS011;8646;49.716;9.266;2023-04-23T11:51:10;3.00;;;1.20;;
17059;SDS011;8646;49.716;9.266;2023-04-23T11:54:14;2.23;;;1.20;;
17059;SDS011;8646;49.716;9.266;2023-04-23T11:57:17;2.20;;;1.10;;
17059;SDS011;8646;49.716;9.266;2023-04-23T12:00:20;7.03;;;2.43;;
17059;SDS011;8646;49.716;9.266;2023-04-23T12:03:25;2.77;;;1.37;;
17059;SDS011;8646;49.716;9.266;2023-04-23T12:06:29;1.63;;;1.10;;
17059;SDS011;8646;49.716;9.266;2023-04-23T12:09:33;2.70;;;0.90;;
17059;SDS011;8646;49.716;9.266;2023-04-23T12:12:38;2.30;;;0.90;;
17059;SDS011;8646;49.716;9.266;2023-04-23T12:15:44;7.10;;;1.00;;
17059;SDS011;8646;49.716;9.266;2023-04-23T12:18:52;2.33;;;1.10;;
17059;SDS011;8646;49.716;9.266;2023-04-23T12:21:56;2.50;;;1.00;;
17059;SDS011;8646;49.716;9.266;2023-04-23T12:25:04;2.00;;;0.90;;
17059;SDS011;8646;49.716;9.266;2023-04-23T12:28:09;2.77;;;1.00;;
17059;SDS011;8646;49.716;9.266;2023-04-23T12:31:17;1.73;;;0.80;;
17059;SDS011;8646;49.716;9.266;2023-04-23T12:34:20;2.13;;;0.93;;
17059;SDS011;8646;49.716;9.266;2023-04-23T12:37:23;1.80;;;0.80;;
17059;SDS011;8646;49.716;9.266;2023-04-23T12:40:29;1.40;;;0.87;;
17059;SDS011;8646;49.716;9.266;2023-04-23T12:43:31;2.73;;;1.30;;
17059;SDS011;8646;49.716;9.266;2023-04-23T12:46:34;2.80;;;0.90;;
17059;SDS011;8646;49.716;9.266;2023-04-23T12:49:37;3.00;;;0.90;;
17059;SDS011;8646;49.716;9.266;2023-04-23T12:52:41;1.60;;;0.60;;
17059;SDS011;8646;49.716;9.266;2023-04-23T12:55:45;2.90;;;0.97;;
17059;SDS011;8646;49.716;9.266;2023-04-23T12:58:50;1.30;;;0.83;;
17059;SDS011;8646;49.716;9.266;2023-04-23T13:01:53;1.17;;;0.80;;
17059;SDS011;8646;49.716;9.266;2023-04-23T13:04:56;0.90;;;0.80;;
17059;SDS011;8646;49.716;9.266;2023-04-23T13:08:01;1.23;;;0.90;;
17059;SDS011;8646;49.716;9.266;2023-04-23T13:11:05;3.23;;;1.20;;
17059;SDS011;8646;49.716;9.266;2023-04-23T13:14:08;1.20;;;0.80;;
17059;SDS011;8646;49.716;9.266;2023-04-23T13:17:11;4.07;;;1.00;;
17059;SDS011;8646;49.716;9.266;2023-04-23T13:20:13;1.53;;;0.90;;
17059;SDS011;8646;49.716;9.266;2023-04-23T13:23:17;2.87;;;1.00;;
17059;SDS011;8646;49.716;9.266;2023-04-23T13:26:21;3.00;;;1.00;;
17059;SDS011;8646;49.716;9.266;2023-04-23T13:29:24;3.90;;;0.90;;
17059;SDS011;8646;49.716;9.266;2023-04-23T13:32:27;2.27;;;1.33;;
17059;SDS011;8646;49.716;9.266;2023-04-23T13:35:32;1.70;;;0.80;;
17059;SDS011;8646;49.716;9.266;2023-04-23T13:38:38;2.60;;;0.90;;
17059;SDS011;8646;49.716;9.266;2023-04-23T13:41:42;3.33;;;1.43;;
17059;SDS011;8646;49.716;9.266;2023-04-23T13:44:46;3.20;;;0.87;;
17059;SDS011;8646;49.716;9.266;2023-04-23T13:47:49;1.00;;;0.80;;
17059;SDS011;8646;49.716;9.266;2023-04-23T13:50:52;1.60;;;1.00;;
17059;SDS011;8646;49.716;9.266;2023-04-23T13:53:55;2.30;;;1.10;;
17059;SDS011;8646;49.716;9.266;2023-04-23T13:56:59;1.70;;;1.00;;
17059;SDS011;8646;49.716;9.266;2023-04-23T14:00:04;3.57;;;1.07;;
17059;SDS011;8646;49.716;9.266;2023-04-23T14:03:08;0.80;;;0.80;;
17059;SDS011;8646;49.716;9.266;2023-04-23T14:06:11;1.73;;;0.93;;
17059;SDS011;8646;49.716;9.266;2023-04-23T14:09:14;4.80;;;0.93;;
17059;SDS011;8646;49.716;9.266;2023-04-23T14:12:18;1.13;;;0.93;;
17059;SDS011;8646;49.716;9.266;2023-04-23T14:15:21;0.90;;;0.80;;
17059;SDS011;8646;49.716;9.266;2023-04-23T14:18:24;3.17;;;1.00;;
17059;SDS011;8646;49.716;9.266;2023-04-23T14:21:27;3.53;;;1.00;;
17059;SDS011;8646;49.716;9.266;2023-04-23T14:24:32;1.87;;;0.90;;
17059;SDS011;8646;49.716;9.266;2023-04-23T14:27:39;2.87;;;1.20;;
17059;SDS011;8646;49.716;9.266;2023-04-23T14:30:46;1.50;;;1.00;;
17059;SDS011;8646;49.716;9.266;2023-04-23T14:33:49;0.87;;;0.80;;
17059;SDS011;8646;49.716;9.266;2023-04-23T14:36:52;3.33;;;0.90;;
17059;SDS011;8646;49.716;9.266;2023-04-23T14:39:55;1.80;;;0.90;;
17059;SDS011;8646;49.716;9.266;2023-04-23T14:42:59;1.90;;;0.90;;
17059;SDS011;8646;49.716;9.266;2023-04-23T14:46:15;2.07;;;1.10;;
17059;SDS011;8646;49.716;9.266;2023-04-23T14:49:18;2.43;;;1.00;;
17059;SDS011;8646;49.716;9.266;2023-04-23T14:52:22;3.17;;;0.80;;
17059;SDS011;8646;49.716;9.266;2023-04-23T14:55:24;2.17;;;0.80;;
17059;SDS011;8646;49.716;9.266;2023-04-23T14:58:29;0.90;;;0.70;;
17059;SDS011;8646;49.716;9.266;2023-04-23T15:01:32;1.60;;;0.90;;
17059;SDS011;8646;49.716;9.266;2023-04-23T15:04:35;1.40;;;0.70;;
17059;SDS011;8646;49.716;9.266;2023-04-23T15:07:38;2.40;;;0.90;;
17059;SDS011;8646;49.716;9.266;2023-04-23T15:10:41;2.77;;;1.60;;
17059;SDS011;8646;49.716;9.266;2023-04-23T15:13:51;3.83;;;1.40;;
17059;SDS011;8646;49.716;9.266;2023-04-23T15:16:58;2.83;;;1.43;;
17059;SDS011;8646;49.716;9.266;2023-04-23T15:20:01;2.13;;;0.80;;
17059;SDS011;8646;49.716;9.266;2023-04-23T15:23:04;1.57;;;0.80;;
17059;SDS011;8646;49.716;9.266;2023-04-23T15:26:07;1.93;;;0.93;;
17059;SDS011;8646;49.716;9.266;2023-04-23T15:29:11;1.40;;;0.90;;
17059;SDS011;8646;49.716;9.266;2023-04-23T15:32:14;1.13;;;0.70;;
17059;SDS011;8646;49.716;9.266;2023-04-23T15:35:17;1.37;;;1.00;;
17059;SDS011;8646;49.716;9.266;2023-04-23T15:38:20;3.50;;;1.10;;
17059;SDS011;8646;49.716;9.266;2023-04-23T15:41:24;1.73;;;0.80;;
17059;SDS011;8646;49.716;9.266;2023-04-23T15:44:28;3.83;;;0.80;;
17059;SDS011;8646;49.716;9.266;2023-04-23T15:47:31;1.33;;;0.80;;
17059;SDS011;8646;49.716;9.266;2023-04-23T15:50:34;2.83;;;0.70;;
17059;SDS011;8646;49.716;9.266;2023-04-23T15:53:37;2.47;;;1.77;;
17059;SDS011;8646;49.716;9.266;2023-04-23T15:56:39;4.30;;;2.70;;
17059;SDS011;8646;49.716;9.266;2023-04-23T15:59:43;3.67;;;1.93;;
17059;SDS011;8646;49.716;9.266;2023-04-23T16:02:46;4.73;;;3.27;;
17059;SDS011;8646;49.716;9.266;2023-04-23T16:05:49;6.37;;;4.43;;
17059;SDS011;8646;49.716;9.266;2023-04-23T16:08:52;2.73;;;1.20;;
17059;SDS011;8646;49.716;9.266;2023-04-23T16:11:55;1.27;;;0.93;;
17059;SDS011;8646;49.716;9.266;2023-04-23T16:14:59;3.40;;;1.20;;
17059;SDS011;8646;49.716;9.266;2023-04-23T16:18:02;1.23;;;0.90;;
17059;SDS011;8646;49.716;9.266;2023-04-23T16:21:06;3.07;;;1.30;;
17059;SDS011;8646;49.716;9.266;2023-04-23T16:24:09;2.80;;;2.10;;
17059;SDS011;8646;49.716;9.266;2023-04-23T16:27:12;1.30;;;1.10;;
17059;SDS011;8646;49.716;9.266;2023-04-23T16:30:16;1.27;;;0.70;;
17059;SDS011;8646;49.716;9.266;2023-04-23T16:33:19;1.07;;;0.97;;
17059;SDS011;8646;49.716;9.266;2023-04-23T16:36:24;0.70;;;0.70;;
17059;SDS011;8646;49.716;9.266;2023-04-23T16:39:27;1.80;;;0.87;;
17059;SDS011;8646;49.716;9.266;2023-04-23T16:42:29;1.20;;;0.90;;
17059;SDS011;8646;49.716;9.266;2023-04-23T16:45:34;1.30;;;0.80;;
17059;SDS011;8646;49.716;9.266;2023-04-23T16:48:39;4.70;;;3.13;;
17059;SDS011;8646;49.716;9.266;2023-04-23T16:51:42;5.40;;;3.20;;
17059;SDS011;8646;49.716;9.266;2023-04-23T16:54:45;2.00;;;1.00;;
17059;SDS011;8646;49.716;9.266;2023-04-23T16:57:49;2.00;;;0.80;;
17059;SDS011;8646;49.716;9.266;2023-04-23T17:00:54;2.23;;;1.00;;
17059;SDS011;8646;49.716;9.266;2023-04-23T17:03:56;2.60;;;0.90;;
17059;SDS011;8646;49.716;9.266;2023-04-23T17:06:59;3.00;;;0.90;;
17059;SDS011;8646;49.716;9.266;2023-04-23T17:10:03;3.27;;;0.90;;
17059;SDS011;8646;49.716;9.266;2023-04-23T17:13:06;1.73;;;0.90;;
17059;SDS011;8646;49.716;9.266;2023-04-23T17:16:10;5.63;;;1.23;;
17059;SDS011;8646;49.716;9.266;2023-04-23T17:19:13;3.67;;;2.30;;
17059;SDS011;8646;49.716;9.266;2023-04-23T17:22:16;2.53;;;0.83;;
17059;SDS011;8646;49.716;9.266;2023-04-23T17:25:19;4.80;;;0.97;;
17059;SDS011;8646;49.716;9.266;2023-04-23T17:28:21;15.17;;;1.87;;
17059;SDS011;8646;49.716;9.266;2023-04-23T17:31:26;7.00;;;1.30;;
17059;SDS011;8646;49.716;9.266;2023-04-23T17:34:28;5.23;;;1.60;;
17059;SDS011;8646;49.716;9.266;2023-04-23T17:37:31;5.33;;;1.30;;
17059;SDS011;8646;49.716;9.266;2023-04-23T17:40:34;4.10;;;1.10;;
17059;SDS011;8646;49.716;9.266;2023-04-23T17:43:39;4.03;;;1.47;;
17059;SDS011;8646;49.716;9.266;2023-04-23T17:46:43;4.40;;;1.20;;
17059;SDS011;8646;49.716;9.266;2023-04-23T17:49:45;8.67;;;1.57;;
17059;SDS011;8646;49.716;9.266;2023-04-23T17:52:49;3.60;;;1.00;;
17059;SDS011;8646;49.716;9.266;2023-04-23T17:55:52;14.27;;;6.20;;
17059;SDS011;8646;49.716;9.266;2023-04-23T17:59:00;2.03;;;1.33;;
17059;SDS011;8646;49.716;9.266;2023-04-23T18:02:05;3.47;;;1.60;;
17059;SDS011;8646;49.716;9.266;2023-04-23T18:05:08;2.43;;;1.20;;
17059;SDS011;8646;49.716;9.266;2023-04-23T18:08:13;2.80;;;1.30;;
17059;SDS011;8646;49.716;9.266;2023-04-23T18:11:17;3.97;;;1.00;;
17059;SDS011;8646;49.716;9.266;2023-04-23T18:14:20;7.67;;;2.80;;
17059;SDS011;8646;49.716;9.266;2023-04-23T18:17:24;4.57;;;1.80;;
17059;SDS011;8646;49.716;9.266;2023-04-23T18:20:27;3.33;;;1.47;;
17059;SDS011;8646;49.716;9.266;2023-04-23T18:23:30;10.00;;;2.03;;
17059;SDS011;8646;49.716;9.266;2023-04-23T18:26:33;4.43;;;1.40;;
17059;SDS011;8646;49.716;9.266;2023-04-23T18:29:36;4.23;;;1.10;;
17059;SDS011;8646;49.716;9.266;2023-04-23T18:32:41;6.77;;;1.60;;
17059;SDS011;8646;49.716;9.266;2023-04-23T18:35:48;6.27;;;3.60;;
17059;SDS011;8646;49.716;9.266;2023-04-23T18:38:53;10.17;;;4.90;;
17059;SDS011;8646;49.716;9.266;2023-04-23T18:41:56;4.23;;;1.30;;
17059;SDS011;8646;49.716;9.266;2023-04-23T18:45:01;3.97;;;1.60;;